カンゲルルススアーク の空港の天気 - METARとTAF

カンゲルルススアーク空港 ( BGSF / SFJ ) - グリーンランド カンゲルルススアーク
飛行場実況気象(Metar)
観測時間01/21 14:50 WGT (01/21 17:50 UTC)
風向・風速東 9m/s
視程-
天気現象
少しの雲 雲底高度 7320m
気温-3℃
湿度39%
気圧1000hPa
METARBGSF 211750Z AUTO 08017KT 9999NDV FEW240/// M03/M15 Q1000
過去の天気等 Google飛行場航空写真 Wunderground天気予報

過去48時間のMETAR

飛行場予報(TAF)
発表時間: 1/21 14:06 WGT (1/21 17:06 UTC)
予報対象時間: 21日15時 WGT ~ 22日21時 WGT
風向・風速東北東 6m/s
視程10km以上
全天の8割程度の雲 雲底高度 6,100m
TAF BGSF 211706Z 2118/2224 06012KT 9999 BKN200